sensor_id;sensor_type;location;lat;lon;timestamp;temperature;humidity
24226;DHT22;51462;51.422;5.514;2023-03-24T00:01:53;12.30;99.90
24226;DHT22;51462;51.422;5.514;2023-03-24T00:04:20;12.30;99.90
24226;DHT22;51462;51.422;5.514;2023-03-24T00:06:46;12.30;99.90
24226;DHT22;51462;51.422;5.514;2023-03-24T00:09:14;12.20;99.90
24226;DHT22;51462;51.422;5.514;2023-03-24T00:11:40;12.20;99.90
24226;DHT22;51462;51.422;5.514;2023-03-24T00:14:06;12.20;99.90
24226;DHT22;51462;51.422;5.514;2023-03-24T00:16:31;12.20;99.90
24226;DHT22;51462;51.422;5.514;2023-03-24T00:18:59;12.30;99.90
24226;DHT22;51462;51.422;5.514;2023-03-24T00:21:25;12.20;99.90
24226;DHT22;51462;51.422;5.514;2023-03-24T00:23:52;12.20;99.90
24226;DHT22;51462;51.422;5.514;2023-03-24T00:26:19;12.30;99.90
24226;DHT22;51462;51.422;5.514;2023-03-24T00:28:46;12.30;99.90
24226;DHT22;51462;51.422;5.514;2023-03-24T00:31:13;12.30;99.90
24226;DHT22;51462;51.422;5.514;2023-03-24T00:33:40;12.30;99.90
24226;DHT22;51462;51.422;5.514;2023-03-24T00:36:08;12.30;99.90
24226;DHT22;51462;51.422;5.514;2023-03-24T00:38:38;12.30;99.90
24226;DHT22;51462;51.422;5.514;2023-03-24T00:41:09;12.30;99.90
24226;DHT22;51462;51.422;5.514;2023-03-24T00:43:38;12.40;99.90
24226;DHT22;51462;51.422;5.514;2023-03-24T00:46:10;12.40;99.90
24226;DHT22;51462;51.422;5.514;2023-03-24T00:48:37;12.40;99.90
24226;DHT22;51462;51.422;5.514;2023-03-24T00:51:04;12.40;99.90
24226;DHT22;51462;51.422;5.514;2023-03-24T00:53:33;12.40;99.90
24226;DHT22;51462;51.422;5.514;2023-03-24T00:55:59;12.40;99.90
24226;DHT22;51462;51.422;5.514;2023-03-24T00:58:25;12.40;99.90
24226;DHT22;51462;51.422;5.514;2023-03-24T01:00:53;12.40;99.90
24226;DHT22;51462;51.422;5.514;2023-03-24T01:03:20;12.40;99.90
24226;DHT22;51462;51.422;5.514;2023-03-24T01:05:49;12.40;99.90
24226;DHT22;51462;51.422;5.514;2023-03-24T01:08:15;12.40;99.90
24226;DHT22;51462;51.422;5.514;2023-03-24T01:10:46;12.40;99.90
24226;DHT22;51462;51.422;5.514;2023-03-24T01:13:16;12.40;99.90
24226;DHT22;51462;51.422;5.514;2023-03-24T01:15:42;12.40;99.90
24226;DHT22;51462;51.422;5.514;2023-03-24T01:18:09;12.40;99.90
24226;DHT22;51462;51.422;5.514;2023-03-24T01:20:37;12.30;99.90
24226;DHT22;51462;51.422;5.514;2023-03-24T01:23:06;12.30;99.90
24226;DHT22;51462;51.422;5.514;2023-03-24T01:25:33;12.40;99.90
24226;DHT22;51462;51.422;5.514;2023-03-24T01:28:00;12.30;99.90
24226;DHT22;51462;51.422;5.514;2023-03-24T01:30:28;12.30;99.90
24226;DHT22;51462;51.422;5.514;2023-03-24T01:32:54;12.30;99.90
24226;DHT22;51462;51.422;5.514;2023-03-24T01:35:21;12.30;99.90
24226;DHT22;51462;51.422;5.514;2023-03-24T01:37:46;12.40;99.90
24226;DHT22;51462;51.422;5.514;2023-03-24T01:40:21;12.30;99.90
24226;DHT22;51462;51.422;5.514;2023-03-24T01:42:47;12.30;99.90
24226;DHT22;51462;51.422;5.514;2023-03-24T01:48:07;12.30;99.90
24226;DHT22;51462;51.422;5.514;2023-03-24T01:50:33;12.30;99.90
24226;DHT22;51462;51.422;5.514;2023-03-24T01:53:00;12.30;99.90
24226;DHT22;51462;51.422;5.514;2023-03-24T01:55:27;12.30;99.90
24226;DHT22;51462;51.422;5.514;2023-03-24T01:57:57;12.20;99.90
24226;DHT22;51462;51.422;5.514;2023-03-24T02:00:24;12.30;99.90
24226;DHT22;51462;51.422;5.514;2023-03-24T02:03:00;12.30;99.90
24226;DHT22;51462;51.422;5.514;2023-03-24T02:05:31;12.30;99.90
24226;DHT22;51462;51.422;5.514;2023-03-24T02:08:21;12.30;99.90
24226;DHT22;51462;51.422;5.514;2023-03-24T02:10:50;12.40;99.90
24226;DHT22;51462;51.422;5.514;2023-03-24T02:13:16;12.30;99.90
24226;DHT22;51462;51.422;5.514;2023-03-24T02:16:01;12.40;99.90
24226;DHT22;51462;51.422;5.514;2023-03-24T02:18:45;12.30;99.90
24226;DHT22;51462;51.422;5.514;2023-03-24T02:27:04;12.40;99.90
24226;DHT22;51462;51.422;5.514;2023-03-24T02:29:52;12.40;99.90
24226;DHT22;51462;51.422;5.514;2023-03-24T02:38:46;12.30;99.90
24226;DHT22;51462;51.422;5.514;2023-03-24T02:41:30;12.30;99.90
24226;DHT22;51462;51.422;5.514;2023-03-24T02:46:43;12.30;99.90
24226;DHT22;51462;51.422;5.514;2023-03-24T02:51:53;12.30;99.90
24226;DHT22;51462;51.422;5.514;2023-03-24T02:54:32;12.40;99.90
24226;DHT22;51462;51.422;5.514;2023-03-24T02:57:07;12.40;99.90
24226;DHT22;51462;51.422;5.514;2023-03-24T03:02:08;12.30;99.90
24226;DHT22;51462;51.422;5.514;2023-03-24T03:04:46;12.30;99.90
24226;DHT22;51462;51.422;5.514;2023-03-24T03:07:17;12.30;99.90
24226;DHT22;51462;51.422;5.514;2023-03-24T03:09:59;12.30;99.90
24226;DHT22;51462;51.422;5.514;2023-03-24T03:12:31;12.30;99.90
24226;DHT22;51462;51.422;5.514;2023-03-24T03:15:02;12.20;99.90
24226;DHT22;51462;51.422;5.514;2023-03-24T03:17:36;12.20;99.90
24226;DHT22;51462;51.422;5.514;2023-03-24T03:20:13;12.30;99.90
24226;DHT22;51462;51.422;5.514;2023-03-24T03:22:50;12.30;99.90
24226;DHT22;51462;51.422;5.514;2023-03-24T03:25:22;12.30;99.90
24226;DHT22;51462;51.422;5.514;2023-03-24T03:27:50;12.30;99.90
24226;DHT22;51462;51.422;5.514;2023-03-24T03:30:27;12.20;99.90
24226;DHT22;51462;51.422;5.514;2023-03-24T03:33:00;12.20;99.90
24226;DHT22;51462;51.422;5.514;2023-03-24T03:35:41;12.10;99.90
24226;DHT22;51462;51.422;5.514;2023-03-24T03:38:31;12.10;99.90
24226;DHT22;51462;51.422;5.514;2023-03-24T03:41:02;12.00;99.90
24226;DHT22;51462;51.422;5.514;2023-03-24T03:43:29;11.90;99.90
24226;DHT22;51462;51.422;5.514;2023-03-24T03:45:57;11.90;99.90
24226;DHT22;51462;51.422;5.514;2023-03-24T03:48:23;11.80;99.90
24226;DHT22;51462;51.422;5.514;2023-03-24T03:50:51;11.70;99.90
24226;DHT22;51462;51.422;5.514;2023-03-24T03:53:19;11.70;99.90
24226;DHT22;51462;51.422;5.514;2023-03-24T03:55:47;11.60;99.90
24226;DHT22;51462;51.422;5.514;2023-03-24T03:58:12;11.60;99.90
24226;DHT22;51462;51.422;5.514;2023-03-24T04:00:38;11.50;99.90
24226;DHT22;51462;51.422;5.514;2023-03-24T04:05:40;11.40;99.90
24226;DHT22;51462;51.422;5.514;2023-03-24T04:17:03;11.30;99.90
24226;DHT22;51462;51.422;5.514;2023-03-24T04:19:52;11.20;99.90
24226;DHT22;51462;51.422;5.514;2023-03-24T04:27:57;11.10;99.90
24226;DHT22;51462;51.422;5.514;2023-03-24T04:30:47;11.10;99.90
24226;DHT22;51462;51.422;5.514;2023-03-24T04:36:51;10.90;99.90
24226;DHT22;51462;51.422;5.514;2023-03-24T04:39:24;11.20;99.90
24226;DHT22;51462;51.422;5.514;2023-03-24T04:41:57;11.10;99.90
24226;DHT22;51462;51.422;5.514;2023-03-24T04:44:24;11.10;99.90
24226;DHT22;51462;51.422;5.514;2023-03-24T04:46:53;11.10;99.90
24226;DHT22;51462;51.422;5.514;2023-03-24T04:49:21;11.00;99.90
24226;DHT22;51462;51.422;5.514;2023-03-24T04:51:50;10.90;99.90
24226;DHT22;51462;51.422;5.514;2023-03-24T04:54:17;11.00;99.90
24226;DHT22;51462;51.422;5.514;2023-03-24T04:56:45;10.90;99.90
24226;DHT22;51462;51.422;5.514;2023-03-24T04:59:13;10.90;99.90
24226;DHT22;51462;51.422;5.514;2023-03-24T05:01:40;10.80;99.90
24226;DHT22;51462;51.422;5.514;2023-03-24T05:04:06;10.90;99.90
24226;DHT22;51462;51.422;5.514;2023-03-24T05:06:32;10.90;99.90
24226;DHT22;51462;51.422;5.514;2023-03-24T05:08:58;11.10;99.90
24226;DHT22;51462;51.422;5.514;2023-03-24T05:11:27;11.00;99.90
24226;DHT22;51462;51.422;5.514;2023-03-24T05:13:53;10.80;99.90
24226;DHT22;51462;51.422;5.514;2023-03-24T05:16:20;11.00;99.90
24226;DHT22;51462;51.422;5.514;2023-03-24T05:18:45;10.80;99.90
24226;DHT22;51462;51.422;5.514;2023-03-24T05:21:11;11.00;99.90
24226;DHT22;51462;51.422;5.514;2023-03-24T05:23:37;10.90;99.90
24226;DHT22;51462;51.422;5.514;2023-03-24T05:26:03;10.80;99.90
24226;DHT22;51462;51.422;5.514;2023-03-24T05:28:30;11.00;99.90
24226;DHT22;51462;51.422;5.514;2023-03-24T05:30:55;10.70;99.90
24226;DHT22;51462;51.422;5.514;2023-03-24T05:33:21;10.50;99.90
24226;DHT22;51462;51.422;5.514;2023-03-24T05:35:47;10.50;99.90
24226;DHT22;51462;51.422;5.514;2023-03-24T05:38:12;10.70;99.90
24226;DHT22;51462;51.422;5.514;2023-03-24T05:40:38;10.70;99.90
24226;DHT22;51462;51.422;5.514;2023-03-24T05:43:04;10.60;99.90
24226;DHT22;51462;51.422;5.514;2023-03-24T05:45:30;10.50;99.90
24226;DHT22;51462;51.422;5.514;2023-03-24T05:47:55;10.50;99.90
24226;DHT22;51462;51.422;5.514;2023-03-24T05:50:21;10.40;99.90
24226;DHT22;51462;51.422;5.514;2023-03-24T05:52:48;10.50;99.90
24226;DHT22;51462;51.422;5.514;2023-03-24T05:55:14;10.60;99.90
24226;DHT22;51462;51.422;5.514;2023-03-24T05:57:40;10.70;99.90
24226;DHT22;51462;51.422;5.514;2023-03-24T06:00:08;10.70;99.90
24226;DHT22;51462;51.422;5.514;2023-03-24T06:02:39;10.90;99.90
24226;DHT22;51462;51.422;5.514;2023-03-24T06:05:05;10.70;99.90
24226;DHT22;51462;51.422;5.514;2023-03-24T06:07:32;10.60;99.90
24226;DHT22;51462;51.422;5.514;2023-03-24T06:09:58;10.60;99.90
24226;DHT22;51462;51.422;5.514;2023-03-24T06:12:27;10.70;99.90
24226;DHT22;51462;51.422;5.514;2023-03-24T06:14:54;10.50;99.90
24226;DHT22;51462;51.422;5.514;2023-03-24T06:17:20;10.40;99.90
24226;DHT22;51462;51.422;5.514;2023-03-24T06:19:46;10.70;99.90
24226;DHT22;51462;51.422;5.514;2023-03-24T06:22:18;10.60;99.90
24226;DHT22;51462;51.422;5.514;2023-03-24T06:24:44;10.60;99.90
24226;DHT22;51462;51.422;5.514;2023-03-24T06:27:11;10.80;99.90
24226;DHT22;51462;51.422;5.514;2023-03-24T06:29:39;10.70;99.90
24226;DHT22;51462;51.422;5.514;2023-03-24T06:32:07;10.70;99.90
24226;DHT22;51462;51.422;5.514;2023-03-24T06:34:33;10.60;99.90
24226;DHT22;51462;51.422;5.514;2023-03-24T06:36:58;10.60;99.90
24226;DHT22;51462;51.422;5.514;2023-03-24T06:39:24;10.60;99.90
24226;DHT22;51462;51.422;5.514;2023-03-24T06:41:51;11.00;99.90
24226;DHT22;51462;51.422;5.514;2023-03-24T06:44:16;10.90;99.90
24226;DHT22;51462;51.422;5.514;2023-03-24T06:46:42;10.80;99.90
24226;DHT22;51462;51.422;5.514;2023-03-24T06:49:10;10.80;99.90
24226;DHT22;51462;51.422;5.514;2023-03-24T06:51:35;10.70;99.90
24226;DHT22;51462;51.422;5.514;2023-03-24T06:54:01;10.60;99.90
24226;DHT22;51462;51.422;5.514;2023-03-24T06:56:27;10.80;99.90
24226;DHT22;51462;51.422;5.514;2023-03-24T06:58:54;10.80;99.90
24226;DHT22;51462;51.422;5.514;2023-03-24T07:01:21;10.80;99.90
24226;DHT22;51462;51.422;5.514;2023-03-24T07:03:46;10.90;99.90
24226;DHT22;51462;51.422;5.514;2023-03-24T07:06:12;11.00;99.90
24226;DHT22;51462;51.422;5.514;2023-03-24T07:08:38;11.00;99.90
24226;DHT22;51462;51.422;5.514;2023-03-24T07:11:05;10.90;99.90
24226;DHT22;51462;51.422;5.514;2023-03-24T07:13:31;11.00;99.90
24226;DHT22;51462;51.422;5.514;2023-03-24T07:15:57;10.90;99.90
24226;DHT22;51462;51.422;5.514;2023-03-24T07:18:23;11.00;99.90
24226;DHT22;51462;51.422;5.514;2023-03-24T07:20:48;10.90;99.90
24226;DHT22;51462;51.422;5.514;2023-03-24T07:23:14;10.90;99.90
24226;DHT22;51462;51.422;5.514;2023-03-24T07:25:40;10.90;99.90
24226;DHT22;51462;51.422;5.514;2023-03-24T07:28:06;11.10;99.90
24226;DHT22;51462;51.422;5.514;2023-03-24T07:30:32;11.00;99.90
24226;DHT22;51462;51.422;5.514;2023-03-24T07:33:00;11.00;99.90
24226;DHT22;51462;51.422;5.514;2023-03-24T07:35:27;11.00;99.90
24226;DHT22;51462;51.422;5.514;2023-03-24T07:37:57;11.00;99.90
24226;DHT22;51462;51.422;5.514;2023-03-24T07:40:22;11.00;99.90
24226;DHT22;51462;51.422;5.514;2023-03-24T07:42:49;11.10;99.90
24226;DHT22;51462;51.422;5.514;2023-03-24T07:45:15;11.10;99.90
24226;DHT22;51462;51.422;5.514;2023-03-24T07:47:43;11.10;99.90
24226;DHT22;51462;51.422;5.514;2023-03-24T07:50:10;11.20;99.90
24226;DHT22;51462;51.422;5.514;2023-03-24T07:52:37;11.20;99.90
24226;DHT22;51462;51.422;5.514;2023-03-24T07:55:05;11.20;99.90
24226;DHT22;51462;51.422;5.514;2023-03-24T07:57:33;11.30;99.90
24226;DHT22;51462;51.422;5.514;2023-03-24T08:00:04;11.30;99.90
24226;DHT22;51462;51.422;5.514;2023-03-24T08:02:39;11.40;99.90
24226;DHT22;51462;51.422;5.514;2023-03-24T08:05:06;11.40;99.90
24226;DHT22;51462;51.422;5.514;2023-03-24T08:07:32;11.50;99.90
24226;DHT22;51462;51.422;5.514;2023-03-24T08:09:58;11.50;99.90
24226;DHT22;51462;51.422;5.514;2023-03-24T08:12:24;11.50;99.90
24226;DHT22;51462;51.422;5.514;2023-03-24T08:14:50;11.60;99.90
24226;DHT22;51462;51.422;5.514;2023-03-24T08:17:16;11.50;99.90
24226;DHT22;51462;51.422;5.514;2023-03-24T08:19:41;11.50;99.90
24226;DHT22;51462;51.422;5.514;2023-03-24T08:22:07;11.60;99.90
24226;DHT22;51462;51.422;5.514;2023-03-24T08:24:33;11.70;99.90
24226;DHT22;51462;51.422;5.514;2023-03-24T08:26:59;11.70;99.90
24226;DHT22;51462;51.422;5.514;2023-03-24T08:29:27;11.80;99.90
24226;DHT22;51462;51.422;5.514;2023-03-24T08:31:52;11.90;99.90
24226;DHT22;51462;51.422;5.514;2023-03-24T08:34:18;11.80;99.90
24226;DHT22;51462;51.422;5.514;2023-03-24T08:36:43;11.90;99.90
24226;DHT22;51462;51.422;5.514;2023-03-24T08:39:09;12.00;99.90
24226;DHT22;51462;51.422;5.514;2023-03-24T08:41:35;12.00;99.90
24226;DHT22;51462;51.422;5.514;2023-03-24T08:44:02;12.00;99.90
24226;DHT22;51462;51.422;5.514;2023-03-24T08:46:32;12.00;99.90
24226;DHT22;51462;51.422;5.514;2023-03-24T08:48:58;12.00;99.90
24226;DHT22;51462;51.422;5.514;2023-03-24T08:51:25;12.10;99.90
24226;DHT22;51462;51.422;5.514;2023-03-24T08:53:51;12.20;99.90
24226;DHT22;51462;51.422;5.514;2023-03-24T08:56:19;12.30;99.90
24226;DHT22;51462;51.422;5.514;2023-03-24T08:58:45;12.30;99.90
24226;DHT22;51462;51.422;5.514;2023-03-24T09:01:13;12.30;99.90
24226;DHT22;51462;51.422;5.514;2023-03-24T09:03:39;12.30;99.90
24226;DHT22;51462;51.422;5.514;2023-03-24T09:06:05;12.30;99.90
24226;DHT22;51462;51.422;5.514;2023-03-24T09:08:31;12.30;99.90
24226;DHT22;51462;51.422;5.514;2023-03-24T09:10:57;12.30;99.90
24226;DHT22;51462;51.422;5.514;2023-03-24T09:13:22;12.30;99.90
24226;DHT22;51462;51.422;5.514;2023-03-24T09:15:50;12.20;99.90
24226;DHT22;51462;51.422;5.514;2023-03-24T09:18:16;12.20;99.90
24226;DHT22;51462;51.422;5.514;2023-03-24T09:20:43;12.40;99.90
24226;DHT22;51462;51.422;5.514;2023-03-24T09:23:09;12.40;99.90
24226;DHT22;51462;51.422;5.514;2023-03-24T09:25:35;12.40;99.90
24226;DHT22;51462;51.422;5.514;2023-03-24T09:28:00;12.40;99.90
24226;DHT22;51462;51.422;5.514;2023-03-24T09:30:26;12.30;99.90
24226;DHT22;51462;51.422;5.514;2023-03-24T09:32:52;12.30;99.90
24226;DHT22;51462;51.422;5.514;2023-03-24T09:35:18;12.40;99.90
24226;DHT22;51462;51.422;5.514;2023-03-24T09:37:43;12.40;99.90
24226;DHT22;51462;51.422;5.514;2023-03-24T09:40:27;12.50;99.90
24226;DHT22;51462;51.422;5.514;2023-03-24T09:42:58;12.50;99.90
24226;DHT22;51462;51.422;5.514;2023-03-24T09:45:26;12.50;99.90
24226;DHT22;51462;51.422;5.514;2023-03-24T09:48:13;12.70;99.90
24226;DHT22;51462;51.422;5.514;2023-03-24T09:53:38;12.50;99.90
24226;DHT22;51462;51.422;5.514;2023-03-24T09:56:21;12.50;99.90
24226;DHT22;51462;51.422;5.514;2023-03-24T09:59:17;12.70;99.90
24226;DHT22;51462;51.422;5.514;2023-03-24T10:01:43;12.60;99.90
24226;DHT22;51462;51.422;5.514;2023-03-24T10:04:15;12.60;99.90
24226;DHT22;51462;51.422;5.514;2023-03-24T10:06:42;12.60;99.90
24226;DHT22;51462;51.422;5.514;2023-03-24T10:09:21;12.70;99.90
24226;DHT22;51462;51.422;5.514;2023-03-24T10:25:22;12.70;99.90
24226;DHT22;51462;51.422;5.514;2023-03-24T10:28:15;12.80;99.90
24226;DHT22;51462;51.422;5.514;2023-03-24T10:30:42;12.80;99.90
24226;DHT22;51462;51.422;5.514;2023-03-24T10:33:12;12.80;99.90
24226;DHT22;51462;51.422;5.514;2023-03-24T10:35:42;12.90;99.90
24226;DHT22;51462;51.422;5.514;2023-03-24T10:38:19;12.80;99.90
24226;DHT22;51462;51.422;5.514;2023-03-24T10:40:46;12.90;99.90
24226;DHT22;51462;51.422;5.514;2023-03-24T10:43:13;12.90;99.90
24226;DHT22;51462;51.422;5.514;2023-03-24T10:45:43;12.80;99.90
24226;DHT22;51462;51.422;5.514;2023-03-24T10:48:11;12.80;99.90
24226;DHT22;51462;51.422;5.514;2023-03-24T10:50:42;12.60;99.90
24226;DHT22;51462;51.422;5.514;2023-03-24T10:53:18;12.80;99.90
24226;DHT22;51462;51.422;5.514;2023-03-24T10:55:45;12.80;99.90
24226;DHT22;51462;51.422;5.514;2023-03-24T10:58:42;12.80;99.90
24226;DHT22;51462;51.422;5.514;2023-03-24T11:01:26;12.90;99.90
24226;DHT22;51462;51.422;5.514;2023-03-24T11:03:59;12.90;99.90
24226;DHT22;51462;51.422;5.514;2023-03-24T11:06:28;12.90;99.90
24226;DHT22;51462;51.422;5.514;2023-03-24T11:11:41;13.00;99.90
24226;DHT22;51462;51.422;5.514;2023-03-24T11:14:20;13.00;99.90
24226;DHT22;51462;51.422;5.514;2023-03-24T11:16:47;13.00;99.90
24226;DHT22;51462;51.422;5.514;2023-03-24T11:19:23;13.00;99.90
24226;DHT22;51462;51.422;5.514;2023-03-24T11:21:51;13.00;99.90
24226;DHT22;51462;51.422;5.514;2023-03-24T11:24:18;13.20;99.90
24226;DHT22;51462;51.422;5.514;2023-03-24T11:29:17;13.30;99.90
24226;DHT22;51462;51.422;5.514;2023-03-24T11:31:59;13.30;99.90
24226;DHT22;51462;51.422;5.514;2023-03-24T11:34:33;13.30;99.90
24226;DHT22;51462;51.422;5.514;2023-03-24T11:37:18;13.30;99.90
24226;DHT22;51462;51.422;5.514;2023-03-24T11:42:32;13.50;99.90
24226;DHT22;51462;51.422;5.514;2023-03-24T11:44:57;13.50;99.90
24226;DHT22;51462;51.422;5.514;2023-03-24T11:47:35;13.50;99.90
24226;DHT22;51462;51.422;5.514;2023-03-24T12:01:02;13.00;99.90
24226;DHT22;51462;51.422;5.514;2023-03-24T12:03:42;12.90;99.90
24226;DHT22;51462;51.422;5.514;2023-03-24T12:06:18;12.80;99.90
24226;DHT22;51462;51.422;5.514;2023-03-24T12:08:54;12.20;99.90
24226;DHT22;51462;51.422;5.514;2023-03-24T12:11:43;11.80;99.90
24226;DHT22;51462;51.422;5.514;2023-03-24T12:14:26;11.30;99.90
24226;DHT22;51462;51.422;5.514;2023-03-24T12:17:14;11.10;99.90
24226;DHT22;51462;51.422;5.514;2023-03-24T12:19:55;10.70;99.90
24226;DHT22;51462;51.422;5.514;2023-03-24T12:22:39;10.40;99.90
24226;DHT22;51462;51.422;5.514;2023-03-24T12:25:28;10.60;99.90
24226;DHT22;51462;51.422;5.514;2023-03-24T12:30:28;10.40;99.90
24226;DHT22;51462;51.422;5.514;2023-03-24T12:35:51;10.20;99.90
24226;DHT22;51462;51.422;5.514;2023-03-24T12:39:11;10.40;99.90
24226;DHT22;51462;51.422;5.514;2023-03-24T12:44:37;10.80;99.90
24226;DHT22;51462;51.422;5.514;2023-03-24T12:49:41;10.70;99.90
24226;DHT22;51462;51.422;5.514;2023-03-24T12:55:12;10.90;99.90
24226;DHT22;51462;51.422;5.514;2023-03-24T12:57:47;10.90;99.90
24226;DHT22;51462;51.422;5.514;2023-03-24T13:00:32;11.00;99.90
24226;DHT22;51462;51.422;5.514;2023-03-24T13:03:11;11.10;99.90
24226;DHT22;51462;51.422;5.514;2023-03-24T13:05:46;10.80;99.90
24226;DHT22;51462;51.422;5.514;2023-03-24T13:08:19;11.00;99.90
24226;DHT22;51462;51.422;5.514;2023-03-24T13:10:48;11.10;99.90
24226;DHT22;51462;51.422;5.514;2023-03-24T13:13:28;11.20;99.90
24226;DHT22;51462;51.422;5.514;2023-03-24T13:16:00;11.50;99.90
24226;DHT22;51462;51.422;5.514;2023-03-24T13:18:43;11.80;99.90
24226;DHT22;51462;51.422;5.514;2023-03-24T13:21:13;11.80;99.90
24226;DHT22;51462;51.422;5.514;2023-03-24T13:26:38;12.40;99.90
24226;DHT22;51462;51.422;5.514;2023-03-24T13:34:36;12.50;99.90
24226;DHT22;51462;51.422;5.514;2023-03-24T13:37:16;12.50;99.90
24226;DHT22;51462;51.422;5.514;2023-03-24T13:39:45;12.50;99.90
24226;DHT22;51462;51.422;5.514;2023-03-24T13:42:34;12.70;99.90
24226;DHT22;51462;51.422;5.514;2023-03-24T13:45:01;12.60;99.90
24226;DHT22;51462;51.422;5.514;2023-03-24T13:47:52;12.60;99.90
24226;DHT22;51462;51.422;5.514;2023-03-24T13:50:26;12.80;99.90
24226;DHT22;51462;51.422;5.514;2023-03-24T13:52:53;13.30;99.90
24226;DHT22;51462;51.422;5.514;2023-03-24T13:55:29;13.70;99.90
24226;DHT22;51462;51.422;5.514;2023-03-24T13:58:04;13.90;99.90
24226;DHT22;51462;51.422;5.514;2023-03-24T14:01:04;14.50;99.90
24226;DHT22;51462;51.422;5.514;2023-03-24T14:03:41;14.80;99.90
24226;DHT22;51462;51.422;5.514;2023-03-24T14:06:08;15.10;99.90
24226;DHT22;51462;51.422;5.514;2023-03-24T14:11:39;15.10;99.90
24226;DHT22;51462;51.422;5.514;2023-03-24T14:19:36;16.20;99.90
24226;DHT22;51462;51.422;5.514;2023-03-24T14:22:19;16.40;99.90
24226;DHT22;51462;51.422;5.514;2023-03-24T14:25:04;17.10;99.90
24226;DHT22;51462;51.422;5.514;2023-03-24T14:27:35;17.10;99.90
24226;DHT22;51462;51.422;5.514;2023-03-24T14:30:05;17.40;99.90
24226;DHT22;51462;51.422;5.514;2023-03-24T14:32:40;17.90;99.90
24226;DHT22;51462;51.422;5.514;2023-03-24T14:37:56;17.60;99.90
24226;DHT22;51462;51.422;5.514;2023-03-24T14:40:26;17.80;99.90
24226;DHT22;51462;51.422;5.514;2023-03-24T14:42:53;18.40;99.90
24226;DHT22;51462;51.422;5.514;2023-03-24T14:48:01;18.10;99.90
24226;DHT22;51462;51.422;5.514;2023-03-24T14:50:27;17.90;99.90
24226;DHT22;51462;51.422;5.514;2023-03-24T14:52:57;18.40;99.90
24226;DHT22;51462;51.422;5.514;2023-03-24T14:55:24;18.40;99.90
24226;DHT22;51462;51.422;5.514;2023-03-24T15:00:35;17.80;99.90
24226;DHT22;51462;51.422;5.514;2023-03-24T15:03:26;17.30;99.90
24226;DHT22;51462;51.422;5.514;2023-03-24T15:08:36;15.80;99.90
24226;DHT22;51462;51.422;5.514;2023-03-24T15:11:06;16.30;99.90
24226;DHT22;51462;51.422;5.514;2023-03-24T15:13:34;16.80;99.90
24226;DHT22;51462;51.422;5.514;2023-03-24T15:16:03;16.80;99.90
24226;DHT22;51462;51.422;5.514;2023-03-24T15:18:31;16.40;99.90
24226;DHT22;51462;51.422;5.514;2023-03-24T15:20:57;16.20;99.90
24226;DHT22;51462;51.422;5.514;2023-03-24T15:23:25;15.90;99.90
24226;DHT22;51462;51.422;5.514;2023-03-24T15:25:51;15.60;99.90
24226;DHT22;51462;51.422;5.514;2023-03-24T15:28:25;15.40;99.90
24226;DHT22;51462;51.422;5.514;2023-03-24T15:30:52;15.40;99.90
24226;DHT22;51462;51.422;5.514;2023-03-24T15:33:18;15.40;99.90
24226;DHT22;51462;51.422;5.514;2023-03-24T15:35:45;15.30;99.90
24226;DHT22;51462;51.422;5.514;2023-03-24T15:38:18;15.40;99.90
24226;DHT22;51462;51.422;5.514;2023-03-24T15:41:02;15.30;99.90
24226;DHT22;51462;51.422;5.514;2023-03-24T15:43:28;15.20;99.90
24226;DHT22;51462;51.422;5.514;2023-03-24T15:45:56;14.80;99.90
24226;DHT22;51462;51.422;5.514;2023-03-24T15:48:25;15.00;99.90
24226;DHT22;51462;51.422;5.514;2023-03-24T15:50:59;14.90;99.90
24226;DHT22;51462;51.422;5.514;2023-03-24T15:53:29;14.90;99.90
24226;DHT22;51462;51.422;5.514;2023-03-24T15:56:24;14.80;99.90
24226;DHT22;51462;51.422;5.514;2023-03-24T15:58:51;14.60;99.90
24226;DHT22;51462;51.422;5.514;2023-03-24T16:01:24;14.60;99.90
24226;DHT22;51462;51.422;5.514;2023-03-24T16:03:53;14.70;99.90
24226;DHT22;51462;51.422;5.514;2023-03-24T16:06:28;14.70;99.90
24226;DHT22;51462;51.422;5.514;2023-03-24T16:08:57;14.60;99.90
24226;DHT22;51462;51.422;5.514;2023-03-24T16:11:27;14.50;99.90
24226;DHT22;51462;51.422;5.514;2023-03-24T16:13:52;14.80;99.90
24226;DHT22;51462;51.422;5.514;2023-03-24T16:16:26;14.90;99.90
24226;DHT22;51462;51.422;5.514;2023-03-24T16:18:53;15.20;99.90
24226;DHT22;51462;51.422;5.514;2023-03-24T16:21:25;15.50;99.90
24226;DHT22;51462;51.422;5.514;2023-03-24T16:23:53;15.70;99.90
24226;DHT22;51462;51.422;5.514;2023-03-24T16:26:22;15.60;99.90
24226;DHT22;51462;51.422;5.514;2023-03-24T16:28:49;15.60;99.90
24226;DHT22;51462;51.422;5.514;2023-03-24T16:31:24;15.50;99.90
24226;DHT22;51462;51.422;5.514;2023-03-24T16:33:53;15.20;99.90
24226;DHT22;51462;51.422;5.514;2023-03-24T16:36:19;15.10;99.90
24226;DHT22;51462;51.422;5.514;2023-03-24T16:38:47;15.20;99.90
24226;DHT22;51462;51.422;5.514;2023-03-24T16:41:13;15.00;99.90
24226;DHT22;51462;51.422;5.514;2023-03-24T16:43:42;14.90;99.90
24226;DHT22;51462;51.422;5.514;2023-03-24T16:48:39;14.90;99.90
24226;DHT22;51462;51.422;5.514;2023-03-24T16:51:07;14.90;99.90
24226;DHT22;51462;51.422;5.514;2023-03-24T16:53:34;14.70;99.90
24226;DHT22;51462;51.422;5.514;2023-03-24T16:56:00;14.60;99.90
24226;DHT22;51462;51.422;5.514;2023-03-24T16:58:25;14.70;99.90
24226;DHT22;51462;51.422;5.514;2023-03-24T17:00:51;14.70;99.90
24226;DHT22;51462;51.422;5.514;2023-03-24T17:03:17;14.70;99.90
24226;DHT22;51462;51.422;5.514;2023-03-24T17:05:48;14.80;99.90
24226;DHT22;51462;51.422;5.514;2023-03-24T17:08:15;14.50;99.90
24226;DHT22;51462;51.422;5.514;2023-03-24T17:10:41;14.60;99.90
24226;DHT22;51462;51.422;5.514;2023-03-24T17:13:10;14.70;99.90
24226;DHT22;51462;51.422;5.514;2023-03-24T17:15:40;14.50;99.90
24226;DHT22;51462;51.422;5.514;2023-03-24T17:18:06;14.50;99.90
24226;DHT22;51462;51.422;5.514;2023-03-24T17:20:32;14.60;99.90
24226;DHT22;51462;51.422;5.514;2023-03-24T17:22:59;14.50;99.90
24226;DHT22;51462;51.422;5.514;2023-03-24T17:25:25;14.40;99.90
24226;DHT22;51462;51.422;5.514;2023-03-24T17:27:54;14.30;99.90
24226;DHT22;51462;51.422;5.514;2023-03-24T17:30:22;14.10;99.90
24226;DHT22;51462;51.422;5.514;2023-03-24T17:32:48;14.10;99.90
24226;DHT22;51462;51.422;5.514;2023-03-24T17:35:19;14.10;99.90
24226;DHT22;51462;51.422;5.514;2023-03-24T17:37:45;14.10;99.90
24226;DHT22;51462;51.422;5.514;2023-03-24T17:40:14;14.00;99.90
24226;DHT22;51462;51.422;5.514;2023-03-24T17:42:41;14.00;99.90
24226;DHT22;51462;51.422;5.514;2023-03-24T17:45:10;14.00;99.90
24226;DHT22;51462;51.422;5.514;2023-03-24T17:47:36;14.00;99.90
24226;DHT22;51462;51.422;5.514;2023-03-24T17:50:03;14.10;99.90
24226;DHT22;51462;51.422;5.514;2023-03-24T17:52:38;14.00;99.90